Flight Track Log - Related Links

Times and Time Zones

All times are in EDT time to prevent confusion due to time zone crossing. See the RPA3228 flight status page for this flight to view local times or setup timezone preferences in your user account.

Time Position Orientation Groundspeed Altitude Reporting Facility
EDT Latitude Longitude Course Direction KTS MPH feet Rate Location/Type
Tue 07:18:55 AM 41.5269 -93.6736 229° Southwest 153 176 1,800  Level Minneapolis Center
Tue 07:19:25 AM 41.5153 -93.6914 229° Southwest 144 166 2,400 1,063 Climbing Minneapolis Center
Tue 07:20:14 AM 41.4633 -93.7081 194° South 226 260 3,200 1,596 Climbing Minneapolis Center
Tue 07:21:14 AM 41.4522 -93.6114 99° East 278 320 5,300 2,380 Climbing Minneapolis Center
Tue 07:22:15 AM 41.4569 -93.4975 87° East 288 331 8,000 2,459 Climbing Minneapolis Center
Tue 07:23:16 AM 41.4614 -93.3847 87° East 302 348 10,300 2,164 Climbing Minneapolis Center
Tue 07:24:17 AM 41.4664 -93.2653 87° East 322 371 12,400 2,182 Climbing Minneapolis Center
Tue 07:25:17 AM 41.4711 -93.1428 87° East 330 380 14,700 2,083 Climbing Minneapolis Center
Tue 07:26:18 AM 41.4750 -93.0169 88° East 339 390 16,600 1,967 Climbing Minneapolis Center
Tue 07:27:19 AM 41.4800 -92.8811 87° East 356 410 18,700 1,918 Climbing Minneapolis Center
Tue 07:28:20 AM 41.4844 -92.7475 87° East 360 414 20,500 1,623 Climbing Minneapolis Center
Tue 07:29:21 AM 41.4886 -92.6122 88° East 364 419 22,000 1,488 Climbing Minneapolis Center
Tue 07:30:21 AM 41.4942 -92.4753 87° East 368 423 23,500 1,500 Climbing Minneapolis Center
Tue 07:31:17 AM 41.4994 -92.3308 87° East 383 441 24,900 1,333 Climbing Chicago Center
Tue 07:32:18 AM 41.5033 -92.1850 88° East 394 453 26,100 1,230 Climbing Chicago Center
Tue 07:33:19 AM 41.5081 -92.0358 88° East 404 465 27,400 1,268 Climbing Chicago Center
Tue 07:34:21 AM 41.5117 -91.8833 88° East 414 476 28,700 1,415 Climbing Chicago Center
Tue 07:35:22 AM 41.5156 -91.7281 88° East 421 484 30,300 1,415 Climbing Chicago Center
Tue 07:36:24 AM 41.5194 -91.5761 88° East 418 481 31,600 1,366 Climbing Chicago Center
Tue 07:37:25 AM 41.5242 -91.3928 88° East 417 480 33,100 1,171 Climbing Chicago Center
Tue 07:38:27 AM 41.5275 -91.2386 88° East 419 482 34,000 927 Climbing Chicago Center
Tue 07:39:28 AM 41.5292 -91.0861 89° East 418 481 35,000 488 Climbing Chicago Center
Tue 07:40:30 AM 41.5319 -90.9283 89° East 428 493 35,000  Level Chicago Center
Tue 07:41:31 AM 41.5350 -90.7658 89° East 440 506 35,000  Level Chicago Center
Tue 07:42:33 AM 41.5369 -90.6019 89° East 442 509 35,000  Level Chicago Center
Tue 07:43:34 AM 41.5394 -90.4383 89° East 441 507 35,000  Level Chicago Center
Tue 07:44:36 AM 41.5417 -90.2414 89° East 441 507 35,000  Level Chicago Center
Tue 07:45:37 AM 41.5442 -90.0772 89° East 440 506 35,000  Level Chicago Center
Tue 07:46:39 AM 41.5458 -89.9119 89° East 444 511 35,000  Level Chicago Center
Tue 07:47:40 AM 41.5464 -89.7458 90° East 446 513 35,000  Level Chicago Center
Tue 07:48:42 AM 41.5478 -89.5831 89° East 439 505 35,000  Level Chicago Center
Tue 07:49:44 AM 41.5478 -89.3983 90° East 446 513 35,000  Level Chicago Center
Tue 07:50:45 AM 41.5478 -89.2333 90° East 446 513 35,000  Level Chicago Center
Tue 07:51:47 AM 41.5489 -89.0697 89° East 444 511 35,000  Level Chicago Center
Tue 07:52:48 AM 41.5481 -88.9053 90° East 445 512 35,000  Level Chicago Center
Tue 07:53:50 AM 41.5483 -88.7408 90° East 446 513 35,000  Level Chicago Center
Tue 07:54:52 AM 41.5483 -88.5761 90° East 447 514 35,000  Level Chicago Center
Tue 07:55:53 AM 41.5475 -88.4114 90° East 445 512 35,000  Level Chicago Center
Tue 07:56:55 AM 41.5250 -88.2164 99° East 448 516 35,000  Level Chicago Center
Tue 07:57:57 AM 41.4925 -88.0625 106° East 462 532 35,000  Level Chicago Center
Tue 07:58:59 AM 41.4561 -87.8983 106° East 464 534 35,000  Level Chicago Center
Tue 08:00:00 AM 41.4161 -87.7147 106° East 458 527 35,000  Level Chicago Center
Tue 08:01:02 AM 41.3811 -87.5544 106° East 455 524 35,000  Level Chicago Center
Tue 08:02:04 AM 41.3444 -87.3933 107° East 456 525 35,000  Level Chicago Center
Tue 08:03:06 AM 41.3083 -87.2331 107° East 455 524 35,000  Level Chicago Center
Tue 08:04:08 AM 41.2714 -87.0719 107° East 457 526 35,000  Level Chicago Center
Tue 08:05:10 AM 41.2350 -86.9139 107° East 453 521 35,000  Level Chicago Center
Tue 08:06:11 AM 41.1919 -86.7247 107° East 451 519 35,000  Level Chicago Center
Tue 08:07:13 AM 41.1536 -86.5622 107° East 459 528 35,000  Level Chicago Center
Tue 08:08:15 AM 41.1169 -86.4031 107° East 457 526 35,000  Level Chicago Center
Tue 08:09:17 AM 41.0800 -86.2444 107° East 454 522 35,000  Level Chicago Center
Tue 08:10:19 AM 41.0428 -86.0853 107° East 455 524 35,000  Level Chicago Center
Tue 08:11:21 AM 41.0050 -85.9275 108° East 453 521 35,000  Level Chicago Center
Tue 08:12:23 AM 40.9594 -85.7369 108° East 455 524 35,000  Level Chicago Center
Tue 08:13:25 AM 40.9211 -85.5789 108° East 454 522 35,000  Level Chicago Center
Tue 08:14:27 AM 40.8825 -85.4181 108° East 458 527 35,000  Level Chicago Center
Tue 08:15:29 AM 40.8433 -85.2597 108° East 458 527 35,000  Level Chicago Center
Tue 08:16:30 AM 40.8053 -85.1019 108° East 457 526 35,000  Level Chicago Center
Tue 08:17:32 AM 40.7575 -84.9178 109° East 452 520 35,000  Level Chicago Center
Tue 08:18:34 AM 40.7189 -84.7542 107° East 460 529 35,000  Level Chicago Center
Tue 08:19:36 AM 40.6800 -84.5933 108° East 464 534 35,000  Level Chicago Center
Tue 08:20:38 AM 40.6397 -84.4342 108° East 463 533 35,000  Level Chicago Center
Tue 08:21:19 AM 40.6072 -84.3094 109° East 463 533 35,000  Level Indianapolis Center
Tue 08:22:21 AM 40.5658 -84.1481 109° East 462 532 35,000  Level Indianapolis Center
Tue 08:23:22 AM 40.5247 -83.9875 109° East 459 528 35,000  Level Indianapolis Center
Tue 08:24:24 AM 40.4828 -83.8258 109° East 462 532 35,000  Level Indianapolis Center
Tue 08:25:26 AM 40.4403 -83.6639 109° East 463 533 35,000  Level Indianapolis Center
Tue 08:26:28 AM 40.3978 -83.5036 109° East 460 529 35,000  Level Indianapolis Center
Tue 08:27:29 AM 40.3547 -83.3417 109° East 463 533 35,000  Level Indianapolis Center
Tue 08:28:31 AM 40.3106 -83.1808 110° East 462 532 35,000  Level Indianapolis Center
Tue 08:29:33 AM 40.2686 -83.0200 109° East 460 529 35,000  Level Indianapolis Center
Tue 08:30:35 AM 40.2244 -82.8594 110° East 461 531 35,000  Level Indianapolis Center
Tue 08:31:36 AM 40.1806 -82.6978 110° East 465 535 35,000  Level Indianapolis Center
Tue 08:32:38 AM 40.1364 -82.5383 110° East 462 532 35,000  Level Indianapolis Center
Tue 08:33:40 AM 40.0803 -82.3533 112° Southeast 465 535 35,000  Level Indianapolis Center
Tue 08:34:42 AM 40.0339 -82.1958 111° Southeast 461 531 35,000  Level Indianapolis Center
Tue 08:35:43 AM 39.9858 -82.0372 112° Southeast 464 534 35,000  Level Indianapolis Center
Tue 08:36:45 AM 39.9375 -81.8786 112° Southeast 466 536 35,000  Level Indianapolis Center
Tue 08:37:47 AM 39.8900 -81.7189 111° Southeast 468 539 35,000  Level Indianapolis Center
Tue 08:38:57 AM 39.8278 -81.5264 113° Southeast 461 531 35,000  Level Cleveland Center
Tue 08:39:57 AM 39.7789 -81.3692 112° Southeast 461 531 35,000  Level Cleveland Center
Tue 08:40:57 AM 39.7422 -81.2256 108° East 461 531 35,000  Level Cleveland Center
Tue 08:41:57 AM 39.6931 -81.0742 113° Southeast 461 531 35,000  Level Cleveland Center
Tue 08:42:57 AM 39.6456 -80.9147 111° Southeast 461 531 35,000  Level Cleveland Center
Tue 08:43:57 AM 39.5958 -80.7608 113° Southeast 461 531 35,000  Level Cleveland Center
Tue 08:45:34 AM 39.5139 -80.4931 112° Southeast 495 570 35,000  Level Washington Center
Tue 08:46:35 AM 39.4639 -80.3364 112° Southeast 483 556 35,000  Level Washington Center
Tue 08:47:36 AM 39.4136 -80.1825 113° Southeast 471 542 35,000 -610 Level Washington Center
Tue 08:48:33 AM 39.3631 -80.0292 113° Southeast 466 536 33,800 -1,881 Descending Washington Center
Tue 08:49:34 AM 39.3125 -79.8731 113° Southeast 466 536 31,300 -1,388 Descending Washington Center
Tue 08:50:34 AM 39.2886 -79.7214 101° East 451 519 31,000 -149 Descending Washington Center
Tue 08:51:35 AM 39.2769 -79.5706 96° East 435 501 31,000 -148 Level Washington Center
Tue 08:52:36 AM 39.2653 -79.4172 96° East 430 495 30,700 -1,230 Descending Washington Center
Tue 08:53:37 AM 39.2514 -79.2664 97° East 430 495 28,500 -2,136 Descending Washington Center
Tue 08:54:34 AM 39.2392 -79.1183 96° East 435 501 26,500 -2,237 Descending Washington Center
Tue 08:55:35 AM 39.2247 -78.9622 97° East 435 501 24,100 -2,754 Descending Washington Center
Tue 08:56:36 AM 39.2081 -78.8061 98° East 440 506 20,900 -2,033 Descending Washington Center
Tue 08:57:36 AM 39.1933 -78.6553 97° East 440 506 20,000 -864 Descending Washington Center
Tue 08:58:34 AM 39.1783 -78.5100 98° East 422 486 19,200 -1,475 Descending Washington Center
Tue 08:59:34 AM 39.1628 -78.3650 98° East 417 480 17,100 -1,636 Descending Washington Center
Tue 09:00:35 AM 39.1306 -78.2300 107° East 400 460 15,900 -1,082 Descending Washington Center
Tue 09:01:36 AM 39.0894 -78.1000 112° Southeast 395 455 14,900 -958 Descending Washington Center
Tue 09:02:34 AM 39.0267 -78.0072 131° Southeast 368 423 14,000 -1,109 Descending Washington Center
Tue 09:03:35 AM 39.0081 -77.8917 102° East 344 396 12,700 -1,686 Descending Washington Center
Tue 09:04:35 AM 38.9958 -77.7683 97° East 320 368 10,600 -1,785 Descending Washington Center
Tue 09:05:36 AM 38.9850 -77.6719 98° East 310 357 9,100 -960 Descending Washington Center
Tue 09:06:15 AM 38.9667 -77.5833 105° East 312 359 9,000 -300 Descending Potomac TRACON
Tue 09:07:16 AM 38.9333 -77.4833 113° Southeast 315 362 8,600 -991 Descending Potomac TRACON
Tue 09:08:10 AM 38.8833 -77.4000 128° Southeast 305 351 7,100 -1,368 Descending Potomac TRACON
Tue 09:09:10 AM 38.8500 -77.3000 113° Southeast 259 298 6,000 -574 Descending Potomac TRACON
Tue 09:10:05 AM 38.8167 -77.2500 131° Southeast 224 258 6,000  Level Potomac TRACON
Tue 09:11:05 AM 38.7833 -77.1667 117° Southeast 222 255 6,000  Level Potomac TRACON
Tue 09:11:59 AM 38.7667 -77.1167 113° Southeast 226 260 6,000  Level Potomac TRACON
Tue 09:12:59 AM 38.7000 -77.1167 180° South 219 252 6,000  Level Potomac TRACON
Tue 09:13:53 AM 38.6500 -77.1000 165° South 210 242 6,000  Level Potomac TRACON
Tue 09:14:53 AM 38.5833 -77.1000 180° South 200 230 6,000  Level Potomac TRACON
Tue 09:15:53 AM 38.5333 -77.1000 180° South 201 231 6,000 -250 Level Potomac TRACON
Tue 09:16:53 AM 38.4833 -77.1000 180° South 202 232 5,500 -900 Descending Potomac TRACON
Tue 09:17:53 AM 38.4833 -77.0333 90° East 195 224 4,200 -750 Descending Potomac TRACON
Tue 09:18:53 AM 38.5333 -77.0333 360° North 170 196 4,000 -250 Descending Potomac TRACON
Tue 09:19:53 AM 38.5833 -77.0333 360° North 174 200 3,700 -300 Descending Potomac TRACON

Login

Don't have an account? Register now (free) for customized features, flight alerts, and more!